Awosting, New Jersey
Current Conditions -  °F | °C
As of 7:53 PM on Tuesday 21 Oct 2014 (Local Time) from KFWN Reporting Station
Overcast Overcast  
Wind Chill: 13°   Ceiling: 1800
Heat Index: 13°   Visibility: 10mi
Dew Point:   Wind: 7mph
Humidity: 80%   Direction: 40°NE
Pressure: 29.91"   Gusts: NA
Location:  41.1652°N, 74.3769°W
Report Text: KFWN 212353Z AUTO 04006KT 10SM BKN018 OVC110 13/09 A2991 RMK AO2 LTG DSNT SE SLP129 T01280094 10156 20128 53018
Loading
Personal Weather Stations






























Interactive Weather Map
Tropical Storm Tracking
New forecast layout! Learn more

10-Day Weather Forecast

Advertisements
Track Severe Weather on mobile